Time;durP1;ratioP1;P1;durP2;ratioP2;P2;SDS_P1;SDS_P2;PMS_P1;PMS_P2;Temp;Humidity;BMP_temperature;BMP_pressure;BME280_temperature;BME280_humidity;BME280_pressure;Samples;Min_cycle;Max_cycle;Signal;HPM_P1;HPM_P2
2022/10/15 00:02:18;;;;;;;;;12.00;10.67;;;;;;;;5019107;28;45397;-70
2022/10/15 00:04:44;;;;;;;;;15.33;13.33;;;;;;;;5018729;28;46354;-70
2022/10/15 00:07:09;;;;;;;;;23.67;22.67;;;;;;;;5018807;28;45290;-70
2022/10/15 00:09:34;;;;;;;;;14.33;14.33;;;;;;;;5018512;28;45392;-70
2022/10/15 00:11:59;;;;;;;;;11.33;11.33;;;;;;;;5019399;28;45278;-71
2022/10/15 00:14:24;;;;;;;;;16.67;15.33;;;;;;;;5018704;28;45578;-70
2022/10/15 00:16:50;;;;;;;;;17.33;14.00;;;;;;;;5017514;28;45586;-70
2022/10/15 00:19:15;;;;;;;;;12.67;12.67;;;;;;;;5019085;28;45345;-70
2022/10/15 00:21:40;;;;;;;;;12.25;12.25;;;;;;;;5018976;28;45346;-71
2022/10/15 00:24:06;;;;;;;;;15.00;11.50;;;;;;;;5018247;28;46462;-71
2022/10/15 00:26:31;;;;;;;;;15.67;14.33;;;;;;;;5018476;28;45224;-71
2022/10/15 00:28:58;;;;;;;;;14.67;11.00;;;;;;;;5017555;28;45378;-71
2022/10/15 00:31:25;;;;;;;;;21.00;16.00;;;;;;;;5018859;28;45291;-70
2022/10/15 00:33:50;;;;;;;;;13.50;10.50;;;;;;;;5017236;28;46483;-70
2022/10/15 00:36:17;;;;;;;;;12.67;11.00;;;;;;;;5017366;28;45440;-69
2022/10/15 00:38:42;;;;;;;;;17.00;14.33;;;;;;;;5018367;28;45314;-70
2022/10/15 00:41:10;;;;;;;;;12.33;10.67;;;;;;;;5018518;28;45360;-70
2022/10/15 00:43:43;;;;;;;;;14.25;11.75;;;;;;;;5018404;28;46505;-70
2022/10/15 00:46:15;;;;;;;;;14.75;11.25;;;;;;;;5016760;28;45412;-70
2022/10/15 00:48:40;;;;;;;;;14.33;12.00;;;;;;;;5018308;28;45330;-70
2022/10/15 00:51:06;;;;;;;;;16.33;14.00;;;;;;;;5017414;28;46920;-70
2022/10/15 00:53:31;;;;;;;;;14.25;11.25;;;;;;;;5018137;28;45792;-70
2022/10/15 00:55:57;;;;;;;;;14.75;12.50;;;;;;;;5017968;28;45439;-70
2022/10/15 00:58:27;;;;;;;;;10.75;8.25;;;;;;;;5018226;28;45355;-70
2022/10/15 01:00:53;;;;;;;;;13.00;11.33;;;;;;;;5015819;28;45281;-70
2022/10/15 01:03:18;;;;;;;;;8.00;8.00;;;;;;;;5018004;28;46520;-69
2022/10/15 01:05:46;;;;;;;;;15.00;11.67;;;;;;;;5018024;28;45287;-69
2022/10/15 01:08:11;;;;;;;;;15.75;13.25;;;;;;;;5017840;28;45337;-68
2022/10/15 01:10:45;;;;;;;;;11.50;9.75;;;;;;;;5018287;28;45479;-70
2022/10/15 01:13:16;;;;;;;;;11.50;11.50;;;;;;;;5017816;28;45452;-71
2022/10/15 01:15:54;;;;;;;;;13.75;11.25;;;;;;;;5017782;28;45328;-68
2022/10/15 01:18:21;;;;;;;;;14.00;10.00;;;;;;;;5010955;28;45463;-69
2022/10/15 01:20:58;;;;;;;;;10.25;10.00;;;;;;;;5017959;28;45262;-69
2022/10/15 01:23:42;;;;;;;;;10.75;9.00;;;;;;;;5017497;28;46378;-69
2022/10/15 01:26:27;;;;;;;;;11.00;9.50;;;;;;;;5017500;28;45386;-71
2022/10/15 01:29:04;;;;;;;;;14.00;10.25;;;;;;;;5015152;28;45358;-69
2022/10/15 01:31:47;;;;;;;;;8.33;8.33;;;;;;;;5015780;28;45421;-71
2022/10/15 01:34:19;;;;;;;;;8.25;8.25;;;;;;;;5015238;28;46342;-70
2022/10/15 01:36:51;;;;;;;;;11.50;9.75;;;;;;;;5034548;28;45665;-68
2022/10/15 01:39:27;;;;;;;;;11.00;8.50;;;;;;;;5030922;28;45415;-71
2022/10/15 01:41:59;;;;;;;;;11.25;9.50;;;;;;;;5015545;28;45467;-69
2022/10/15 01:44:30;;;;;;;;;15.75;11.50;;;;;;;;5015413;28;45458;-69
2022/10/15 01:47:25;;;;;;;;;11.00;9.50;;;;;;;;5015099;28;45381;-71
2022/10/15 01:49:52;;;;;;;;;11.00;9.67;;;;;;;;4998084;28;45467;-71
2022/10/15 01:52:22;;;;;;;;;14.50;10.00;;;;;;;;5015463;28;45307;-71
2022/10/15 01:54:49;;;;;;;;;11.50;11.50;;;;;;;;5014173;28;46686;-70
2022/10/15 01:57:15;;;;;;;;;11.75;10.25;;;;;;;;5031262;28;45807;-71
2022/10/15 01:59:41;;;;;;;;;12.75;10.50;;;;;;;;5035233;28;45345;-70
2022/10/15 02:02:06;;;;;;;;;13.33;12.00;;;;;;;;5031087;28;45442;-72
2022/10/15 02:04:31;;;;;;;;;12.00;10.50;;;;;;;;5015148;28;46616;-71
2022/10/15 02:07:21;;;;;;;;;8.75;8.75;;;;;;;;5017079;28;45400;-72
2022/10/15 02:10:00;;;;;;;;;10.75;9.00;;;;;;;;5012785;28;45291;-70
2022/10/15 02:12:38;;;;;;;;;10.50;8.50;;;;;;;;4997435;28;45591;-71
2022/10/15 02:15:18;;;;;;;;;10.25;9.25;;;;;;;;5010093;28;46619;-71
2022/10/15 02:17:52;;;;;;;;;8.75;8.75;;;;;;;;5015879;28;45472;-71
2022/10/15 02:20:19;;;;;;;;;9.00;8.25;;;;;;;;5017249;28;45519;-70
2022/10/15 02:23:11;;;;;;;;;8.00;8.00;;;;;;;;5017295;28;45289;-70
2022/10/15 02:25:39;;;;;;;;;7.50;7.50;;;;;;;;5016342;28;46852;-71
2022/10/15 02:28:05;;;;;;;;;7.75;7.25;;;;;;;;5017059;28;45568;-70
2022/10/15 02:30:31;;;;;;;;;9.00;8.00;;;;;;;;5015330;28;45410;-70
2022/10/15 02:32:58;;;;;;;;;9.50;9.00;;;;;;;;5017217;28;45450;-70
2022/10/15 02:35:23;;;;;;;;;9.75;8.50;;;;;;;;5016944;28;45354;-71
2022/10/15 02:37:51;;;;;;;;;7.75;7.50;;;;;;;;5016414;28;45343;-71
2022/10/15 02:40:16;;;;;;;;;10.00;6.00;;;;;;;;5017069;28;45446;-70
2022/10/15 02:42:41;;;;;;;;;8.75;8.00;;;;;;;;5016740;28;45243;-71
2022/10/15 02:45:07;;;;;;;;;9.75;7.75;;;;;;;;5016670;28;45643;-70
2022/10/15 02:47:32;;;;;;;;;9.00;9.00;;;;;;;;5015581;28;45572;-70
2022/10/15 02:49:58;;;;;;;;;12.75;9.50;;;;;;;;5016790;28;45400;-70
2022/10/15 02:52:23;;;;;;;;;11.75;11.75;;;;;;;;5019550;28;45223;-70
2022/10/15 02:54:48;;;;;;;;;8.25;7.75;;;;;;;;5020098;28;45679;-70
2022/10/15 02:57:13;;;;;;;;;12.00;10.00;;;;;;;;5020173;28;45285;-70
2022/10/15 02:59:39;;;;;;;;;10.75;10.00;;;;;;;;5019899;28;45355;-70
2022/10/15 03:02:04;;;;;;;;;13.00;11.50;;;;;;;;5018830;28;45491;-70
2022/10/15 03:04:29;;;;;;;;;10.50;10.50;;;;;;;;5020067;28;46180;-70
2022/10/15 03:06:55;;;;;;;;;10.25;10.25;;;;;;;;5019827;28;45415;-72
2022/10/15 03:09:20;;;;;;;;;12.25;10.25;;;;;;;;5020289;28;45301;-70
2022/10/15 03:11:45;;;;;;;;;8.25;8.25;;;;;;;;5019968;28;45353;-71
2022/10/15 03:14:11;;;;;;;;;12.33;11.33;;;;;;;;5019393;28;47419;-71
2022/10/15 03:16:36;;;;;;;;;5.25;5.25;;;;;;;;5019943;28;45454;-71
2022/10/15 03:19:01;;;;;;;;;15.00;13.00;;;;;;;;5018380;28;45333;-70
2022/10/15 03:21:29;;;;;;;;;9.00;9.00;;;;;;;;5020004;28;45487;-70
2022/10/15 03:23:54;;;;;;;;;9.00;8.50;;;;;;;;5019724;28;45359;-70
2022/10/15 03:26:20;;;;;;;;;11.25;9.75;;;;;;;;5019192;28;45401;-71
2022/10/15 03:28:45;;;;;;;;;13.33;10.67;;;;;;;;5019613;28;45419;-70
2022/10/15 03:31:12;;;;;;;;;14.25;10.50;;;;;;;;5019554;28;45571;-71
2022/10/15 03:33:37;;;;;;;;;9.75;9.75;;;;;;;;5018231;28;46690;-70
2022/10/15 03:36:03;;;;;;;;;10.75;10.75;;;;;;;;5019426;28;45424;-70
2022/10/15 03:38:28;;;;;;;;;15.25;10.50;;;;;;;;5019533;28;45448;-70
2022/10/15 03:40:53;;;;;;;;;9.75;9.75;;;;;;;;5019633;28;45257;-71
2022/10/15 03:43:21;;;;;;;;;11.00;11.00;;;;;;;;5019152;28;46254;-72
2022/10/15 03:45:47;;;;;;;;;9.67;9.33;;;;;;;;5019110;28;45329;-70
2022/10/15 03:48:12;;;;;;;;;10.00;9.25;;;;;;;;5018077;28;45367;-70
2022/10/15 03:50:37;;;;;;;;;10.50;10.25;;;;;;;;5019022;28;45297;-70
2022/10/15 03:53:03;;;;;;;;;11.00;9.25;;;;;;;;5018954;28;47408;-70
2022/10/15 03:55:28;;;;;;;;;8.50;7.25;;;;;;;;5019093;28;45551;-70
2022/10/15 03:57:53;;;;;;;;;10.50;10.50;;;;;;;;5019179;28;45416;-70
2022/10/15 04:00:19;;;;;;;;;8.75;8.75;;;;;;;;5019288;28;45388;-70
2022/10/15 04:02:44;;;;;;;;;9.25;8.00;;;;;;;;5017774;28;46396;-70
2022/10/15 04:05:09;;;;;;;;;8.50;8.50;;;;;;;;5017362;28;45429;-70
2022/10/15 04:07:34;;;;;;;;;10.25;9.50;;;;;;;;5019201;28;45293;-70
2022/10/15 04:10:00;;;;;;;;;6.50;6.50;;;;;;;;5019408;28;45419;-70
2022/10/15 04:12:25;;;;;;;;;7.25;7.00;;;;;;;;5018851;28;45484;-69
2022/10/15 04:14:50;;;;;;;;;7.50;6.25;;;;;;;;5018911;28;45423;-70
2022/10/15 04:17:15;;;;;;;;;8.75;7.75;;;;;;;;5019013;28;45313;-70
2022/10/15 04:19:40;;;;;;;;;11.25;11.00;;;;;;;;5017867;28;45455;-70
2022/10/15 04:22:06;;;;;;;;;10.25;9.00;;;;;;;;5017639;28;45489;-70
2022/10/15 04:24:31;;;;;;;;;8.00;8.00;;;;;;;;5018718;28;45777;-69
2022/10/15 04:26:56;;;;;;;;;9.00;8.75;;;;;;;;5018608;28;45278;-69
2022/10/15 04:29:21;;;;;;;;;10.25;8.75;;;;;;;;5017524;28;45469;-70
2022/10/15 04:31:46;;;;;;;;;9.25;9.25;;;;;;;;5018579;28;45593;-70
2022/10/15 04:34:12;;;;;;;;;17.00;14.00;;;;;;;;5018545;28;45456;-70
2022/10/15 04:36:37;;;;;;;;;16.00;11.75;;;;;;;;5018704;28;45365;-70
2022/10/15 04:39:03;;;;;;;;;8.75;8.50;;;;;;;;5017659;28;45456;-70
2022/10/15 04:41:29;;;;;;;;;10.00;10.00;;;;;;;;5018242;28;45361;-71
2022/10/15 04:43:55;;;;;;;;;13.50;11.75;;;;;;;;5018052;28;45203;-70
2022/10/15 04:46:21;;;;;;;;;11.00;11.00;;;;;;;;5018389;28;45314;-70
2022/10/15 04:48:47;;;;;;;;;12.50;12.50;;;;;;;;5018311;28;45426;-70
2022/10/15 04:51:14;;;;;;;;;10.00;7.50;;;;;;;;5018186;28;45384;-70
2022/10/15 04:53:39;;;;;;;;;11.33;10.67;;;;;;;;5018262;28;45367;-70
2022/10/15 04:56:06;;;;;;;;;11.75;10.00;;;;;;;;5017112;28;45221;-69
2022/10/15 04:58:31;;;;;;;;;16.00;11.25;;;;;;;;5018563;28;45356;-70
2022/10/15 05:01:04;;;;;;;;;9.00;8.75;;;;;;;;5016207;28;47343;-71
2022/10/15 05:03:29;;;;;;;;;12.75;10.50;;;;;;;;5017626;28;45431;-70
2022/10/15 05:06:02;;;;;;;;;19.00;15.00;;;;;;;;5018367;28;45308;-70
2022/10/15 05:08:28;;;;;;;;;14.50;11.75;;;;;;;;5018278;28;45804;-70
2022/10/15 05:10:53;;;;;;;;;13.75;12.50;;;;;;;;5015970;28;46112;-72
2022/10/15 05:13:19;;;;;;;;;11.25;11.25;;;;;;;;5017502;28;45375;-71
2022/10/15 05:15:44;;;;;;;;;16.00;14.75;;;;;;;;5017796;28;45296;-71
2022/10/15 05:18:09;;;;;;;;;17.00;12.75;;;;;;;;5018365;28;45312;-70
2022/10/15 05:20:34;;;;;;;;;17.25;16.25;;;;;;;;5017756;28;45543;-70
2022/10/15 05:22:59;;;;;;;;;13.75;12.75;;;;;;;;5017811;28;45556;-70
2022/10/15 05:25:25;;;;;;;;;12.75;12.75;;;;;;;;5015518;28;45455;-70
2022/10/15 05:27:50;;;;;;;;;20.75;16.75;;;;;;;;4998038;28;45489;-71
2022/10/15 05:30:15;;;;;;;;;15.50;15.50;;;;;;;;5012844;28;45428;-71
2022/10/15 05:32:40;;;;;;;;;23.00;18.33;;;;;;;;5017638;28;45380;-71
2022/10/15 05:35:06;;;;;;;;;21.00;18.00;;;;;;;;5017542;28;45435;-72
2022/10/15 05:37:31;;;;;;;;;22.00;16.00;;;;;;;;5017227;28;45535;-73
2022/10/15 05:39:56;;;;;;;;;17.00;14.33;;;;;;;;5006137;28;45441;-73
2022/10/15 05:42:21;;;;;;;;;19.25;14.75;;;;;;;;4996956;28;45504;-73
2022/10/15 05:44:47;;;;;;;;;22.25;16.75;;;;;;;;5013801;28;46002;-73
2022/10/15 05:47:12;;;;;;;;;16.33;16.33;;;;;;;;5017393;28;45341;-72
2022/10/15 05:49:37;;;;;;;;;18.00;15.50;;;;;;;;5016706;28;45374;-73
2022/10/15 05:52:02;;;;;;;;;19.75;16.75;;;;;;;;5017072;28;45452;-72
2022/10/15 05:54:28;;;;;;;;;14.67;10.33;;;;;;;;5017644;28;45748;-73
2022/10/15 05:56:53;;;;;;;;;17.33;15.67;;;;;;;;5017642;28;45428;-73
2022/10/15 05:59:18;;;;;;;;;19.75;14.00;;;;;;;;5015898;28;45331;-73
2022/10/15 06:01:43;;;;;;;;;16.50;15.75;;;;;;;;5016484;28;45428;-73
2022/10/15 06:04:08;;;;;;;;;19.67;16.67;;;;;;;;5017209;28;45361;-73
2022/10/15 06:06:34;;;;;;;;;15.75;15.75;;;;;;;;5016642;28;45271;-71
2022/10/15 06:09:00;;;;;;;;;15.50;14.00;;;;;;;;5017044;28;46218;-73
2022/10/15 06:11:26;;;;;;;;;20.50;14.25;;;;;;;;5017294;28;45328;-72
2022/10/15 06:13:51;;;;;;;;;15.75;12.50;;;;;;;;5017013;28;45376;-73
2022/10/15 06:16:17;;;;;;;;;18.50;14.25;;;;;;;;5015570;28;45293;-73
2022/10/15 06:18:42;;;;;;;;;15.25;12.25;;;;;;;;5018123;28;46215;-72
2022/10/15 06:21:09;;;;;;;;;19.67;14.67;;;;;;;;5016399;28;45793;-73
2022/10/15 06:23:34;;;;;;;;;18.25;12.75;;;;;;;;5016449;28;45432;-74
2022/10/15 06:26:03;;;;;;;;;13.00;13.00;;;;;;;;5017007;28;45304;-72
2022/10/15 06:28:29;;;;;;;;;7.67;7.67;;;;;;;;5019097;28;45517;-73
2022/10/15 06:30:56;;;;;;;;;14.25;12.75;;;;;;;;5016619;28;45452;-72
2022/10/15 06:33:21;;;;;;;;;14.25;14.25;;;;;;;;5017569;28;45539;-72
2022/10/15 06:35:46;;;;;;;;;16.50;10.75;;;;;;;;5018660;28;45494;-73
2022/10/15 06:38:12;;;;;;;;;15.67;15.33;;;;;;;;5018936;28;45370;-73
2022/10/15 06:40:38;;;;;;;;;14.25;10.50;;;;;;;;5018988;28;45384;-73
2022/10/15 06:43:07;;;;;;;;;13.25;11.25;;;;;;;;5018856;28;45344;-73
2022/10/15 06:45:35;;;;;;;;;16.00;14.33;;;;;;;;5019444;28;45304;-73
2022/10/15 06:48:00;;;;;;;;;7.75;7.50;;;;;;;;5018504;28;45537;-73
2022/10/15 06:50:26;;;;;;;;;11.50;8.75;;;;;;;;5015905;28;45449;-73
2022/10/15 06:52:51;;;;;;;;;12.25;8.25;;;;;;;;5019420;28;45259;-73
2022/10/15 06:55:16;;;;;;;;;8.25;8.25;;;;;;;;5019607;28;45631;-74
2022/10/15 06:57:41;;;;;;;;;10.25;10.00;;;;;;;;5018615;28;46193;-73
2022/10/15 07:00:07;;;;;;;;;6.00;6.00;;;;;;;;5018869;28;45504;-76
2022/10/15 07:02:34;;;;;;;;;9.75;8.50;;;;;;;;5018476;28;45820;-76
2022/10/15 07:04:59;;;;;;;;;9.75;8.75;;;;;;;;5019226;28;45442;-77
2022/10/15 07:07:24;;;;;;;;;7.00;6.75;;;;;;;;5017733;28;45487;-72
2022/10/15 07:09:52;;;;;;;;;7.75;4.00;;;;;;;;5018890;28;45819;-71
2022/10/15 07:12:17;;;;;;;;;5.75;4.25;;;;;;;;5019154;28;45360;-70
2022/10/15 07:14:42;;;;;;;;;7.25;7.00;;;;;;;;5018814;28;45419;-69
2022/10/15 07:17:08;;;;;;;;;7.00;5.50;;;;;;;;5017940;28;45713;-70
2022/10/15 07:19:33;;;;;;;;;7.00;4.00;;;;;;;;5018966;28;45247;-70
2022/10/15 07:21:58;;;;;;;;;5.00;4.75;;;;;;;;5017512;28;45485;-70
2022/10/15 07:24:23;;;;;;;;;4.00;4.00;;;;;;;;5018661;28;45282;-72
2022/10/15 07:26:49;;;;;;;;;4.75;4.00;;;;;;;;5018091;28;45665;-72
2022/10/15 07:29:14;;;;;;;;;7.50;5.50;;;;;;;;5010418;28;198407;-72
2022/10/15 07:31:39;;;;;;;;;5.00;3.25;;;;;;;;5018734;28;45256;-72
2022/10/15 07:34:05;;;;;;;;;5.00;5.00;;;;;;;;5019760;28;45472;-72
2022/10/15 07:36:30;;;;;;;;;7.00;4.75;;;;;;;;5018545;28;45560;-71
2022/10/15 07:38:55;;;;;;;;;4.25;2.75;;;;;;;;5018138;28;45289;-70
2022/10/15 07:41:20;;;;;;;;;3.50;3.00;;;;;;;;5019174;28;45444;-71
2022/10/15 07:43:46;;;;;;;;;3.50;3.25;;;;;;;;5018791;28;45298;-71
2022/10/15 07:46:11;;;;;;;;;24.67;24.67;;;;;;;;5018469;28;45491;-72
2022/10/15 07:48:36;;;;;;;;;3.50;3.50;;;;;;;;5018958;28;45163;-72
2022/10/15 07:51:03;;;;;;;;;3.50;3.50;;;;;;;;5019472;28;45402;-72
2022/10/15 07:53:29;;;;;;;;;6.75;5.00;;;;;;;;5019359;28;45535;-71
2022/10/15 07:56:01;;;;;;;;;1.25;1.25;;;;;;;;5017656;28;45432;-71
2022/10/15 07:58:27;;;;;;;;;2.75;2.75;;;;;;;;5018024;28;45402;-74
2022/10/15 08:00:52;;;;;;;;;3.50;3.50;;;;;;;;5006211;28;45423;-71
2022/10/15 08:03:18;;;;;;;;;1.50;1.50;;;;;;;;5004783;28;45448;-70
2022/10/15 08:05:43;;;;;;;;;2.00;2.00;;;;;;;;5013681;28;45608;-70
2022/10/15 08:08:08;;;;;;;;;2.00;2.00;;;;;;;;5018904;28;45444;-70
2022/10/15 08:10:34;;;;;;;;;1.75;1.25;;;;;;;;5018101;28;45362;-74
2022/10/15 08:13:00;;;;;;;;;5.00;1.75;;;;;;;;5018749;28;45299;-75
2022/10/15 08:15:25;;;;;;;;;19.33;19.33;;;;;;;;5018065;28;45356;-71
2022/10/15 08:17:50;;;;;;;;;10.25;8.50;;;;;;;;5018768;28;45270;-72
2022/10/15 08:20:15;;;;;;;;;4.00;2.00;;;;;;;;5017935;28;45459;-73
2022/10/15 08:22:41;;;;;;;;;3.75;1.00;;;;;;;;5018510;28;45471;-77
2022/10/15 08:25:06;;;;;;;;;4.75;2.75;;;;;;;;5018524;28;46408;-71
2022/10/15 08:27:31;;;;;;;;;5.00;2.00;;;;;;;;5017635;28;45343;-73
2022/10/15 08:29:56;;;;;;;;;3.00;3.00;;;;;;;;5018374;28;45443;-72
2022/10/15 08:32:22;;;;;;;;;2.00;2.00;;;;;;;;5019157;28;45147;-74
2022/10/15 08:34:47;;;;;;;;;2.25;1.50;;;;;;;;5018261;28;45438;-80
2022/10/15 08:37:12;;;;;;;;;2.00;1.00;;;;;;;;5017674;28;45163;-74
2022/10/15 08:39:37;;;;;;;;;2.75;2.75;;;;;;;;5017517;28;45338;-72
2022/10/15 08:42:13;;;;;;;;;1.50;1.50;;;;;;;;5017224;28;45356;-75
2022/10/15 08:44:54;;;;;;;;;2.00;2.00;;;;;;;;5032156;28;47605;-70
2022/10/15 08:47:37;;;;;;;;;2.50;1.50;;;;;;;;5018659;28;45320;-70
2022/10/15 08:50:12;;;;;;;;;4.00;4.00;;;;;;;;5017658;28;45333;-72
2022/10/15 08:52:44;;;;;;;;;2.00;2.00;;;;;;;;5018540;28;45418;-76
2022/10/15 08:55:11;;;;;;;;;21.00;21.00;;;;;;;;5018401;28;45703;-73
2022/10/15 08:57:42;;;;;;;;;2.25;2.25;;;;;;;;5016264;28;45333;-77
2022/10/15 09:00:10;;;;;;;;;2.50;1.25;;;;;;;;5016320;28;45706;-76
2022/10/15 09:02:55;;;;;;;;;2.75;2.75;;;;;;;;5018211;28;45369;-78
2022/10/15 09:05:30;;;;;;;;;4.00;3.25;;;;;;;;5016840;28;45448;-75
2022/10/15 09:08:04;;;;;;;;;2.75;2.50;;;;;;;;5010907;28;45316;-77
2022/10/15 09:10:36;;;;;;;;;3.00;1.00;;;;;;;;5007513;28;45275;-76
2022/10/15 09:13:03;;;;;;;;;1.50;1.25;;;;;;;;5007545;28;45551;-77
2022/10/15 09:15:31;;;;;;;;;1.75;1.00;;;;;;;;5014650;28;46680;-77
2022/10/15 09:17:57;;;;;;;;;3.00;2.00;;;;;;;;5012765;28;46051;-78
2022/10/15 09:20:29;;;;;;;;;1.00;1.00;;;;;;;;4998286;28;45468;-76
2022/10/15 09:22:54;;;;;;;;;1.00;1.00;;;;;;;;5016695;28;45513;-77
2022/10/15 09:25:21;;;;;;;;;2.00;2.00;;;;;;;;5009415;28;45364;-76
2022/10/15 09:27:47;;;;;;;;;1.00;1.00;;;;;;;;5007884;28;45230;-75
2022/10/15 09:30:19;;;;;;;;;0.75;0.75;;;;;;;;5006482;28;45265;-73
2022/10/15 09:33:02;;;;;;;;;0.00;0.00;;;;;;;;5009080;28;45502;-76
2022/10/15 09:35:30;;;;;;;;;1.00;0.00;;;;;;;;5006966;28;45455;-75
2022/10/15 09:38:01;;;;;;;;;0.00;0.00;;;;;;;;5007205;28;45427;-76
2022/10/15 09:40:54;;;;;;;;;0.00;0.00;;;;;;;;5008176;28;45377;-78
2022/10/15 09:43:30;;;;;;;;;0.75;0.75;;;;;;;;5012913;28;45492;-77
2022/10/15 09:45:56;;;;;;;;;2.00;1.00;;;;;;;;5007711;28;46216;-77
2022/10/15 09:48:22;;;;;;;;;0.00;0.00;;;;;;;;5006518;28;45596;-75
2022/10/15 09:50:59;;;;;;;;;0.00;0.00;;;;;;;;5010385;28;45234;-76
2022/10/15 09:53:47;;;;;;;;;0.25;0.25;;;;;;;;5007499;28;45461;-77
2022/10/15 09:56:14;;;;;;;;;1.00;1.00;;;;;;;;5012090;28;45486;-77
2022/10/15 09:58:51;;;;;;;;;0.50;0.50;;;;;;;;5005600;28;45356;-77
2022/10/15 10:01:17;;;;;;;;;0.00;0.00;;;;;;;;5004585;28;45508;-75
2022/10/15 10:03:42;;;;;;;;;0.00;0.00;;;;;;;;5005896;28;45472;-77
2022/10/15 10:06:09;;;;;;;;;0.00;0.00;;;;;;;;5009867;28;46604;-79
2022/10/15 10:08:53;;;;;;;;;0.00;0.00;;;;;;;;5008523;28;45287;-79
2022/10/15 10:11:19;;;;;;;;;0.75;0.75;;;;;;;;5013522;28;45432;-78
2022/10/15 10:13:49;;;;;;;;;0.50;0.00;;;;;;;;5016291;28;45266;-77
2022/10/15 10:16:15;;;;;;;;;0.00;0.00;;;;;;;;5016120;28;46092;-77
2022/10/15 10:18:49;;;;;;;;;0.00;0.00;;;;;;;;5015355;28;45392;-78
2022/10/15 10:21:22;;;;;;;;;1.75;0.25;;;;;;;;5009603;28;45495;-78
2022/10/15 10:23:47;;;;;;;;;0.00;0.00;;;;;;;;5007578;28;45461;-79
2022/10/15 10:26:13;;;;;;;;;0.00;0.00;;;;;;;;5006916;28;46594;-76
2022/10/15 10:28:51;;;;;;;;;0.00;0.00;;;;;;;;5007122;28;45514;-77
2022/10/15 10:31:17;;;;;;;;;0.00;0.00;;;;;;;;5007872;28;45460;-78
2022/10/15 10:33:47;;;;;;;;;0.00;0.00;;;;;;;;5008274;28;45484;-78
2022/10/15 10:36:27;;;;;;;;;0.25;0.25;;;;;;;;5005626;28;46434;-79
2022/10/15 10:39:14;;;;;;;;;1.00;0.00;;;;;;;;5007340;28;45247;-78
2022/10/15 10:41:53;;;;;;;;;0.00;0.00;;;;;;;;5009733;28;45332;-79
2022/10/15 10:44:20;;;;;;;;;0.00;0.00;;;;;;;;5012358;28;45539;-79
2022/10/15 10:46:59;;;;;;;;;0.00;0.00;;;;;;;;5015053;28;45621;-78
2022/10/15 10:49:32;;;;;;;;;0.00;0.00;;;;;;;;5008363;28;45445;-79
2022/10/15 10:51:57;;;;;;;;;0.25;0.25;;;;;;;;5016176;28;45279;-80
2022/10/15 10:54:23;;;;;;;;;0.00;0.00;;;;;;;;5006279;28;45534;-74
2022/10/15 10:56:49;;;;;;;;;1.00;0.00;;;;;;;;5016291;28;45361;-71
2022/10/15 10:59:18;;;;;;;;;0.00;0.00;;;;;;;;5016013;28;45432;-73
2022/10/15 11:01:44;;;;;;;;;0.25;0.00;;;;;;;;5014341;28;45494;-72
2022/10/15 11:04:12;;;;;;;;;2.00;0.00;;;;;;;;5016367;28;45312;-72
2022/10/15 11:06:40;;;;;;;;;9.00;9.00;;;;;;;;5016570;28;46439;-72
2022/10/15 11:09:19;;;;;;;;;3.75;3.75;;;;;;;;5016303;28;45338;-71
2022/10/15 11:11:47;;;;;;;;;5.50;3.25;;;;;;;;5016161;28;45480;-72
2022/10/15 11:14:28;;;;;;;;;1.00;1.00;;;;;;;;5019050;28;45301;-71
2022/10/15 11:17:06;;;;;;;;;1.75;1.00;;;;;;;;5019085;28;47569;-72
2022/10/15 11:19:50;;;;;;;;;1.00;1.00;;;;;;;;5000116;28;45302;-71
2022/10/15 11:22:23;;;;;;;;;2.00;2.00;;;;;;;;5005622;28;45356;-71
2022/10/15 11:24:55;;;;;;;;;0.00;0.00;;;;;;;;5019467;28;45639;-72
2022/10/15 11:27:35;;;;;;;;;2.00;2.00;;;;;;;;5015684;28;46165;-71
2022/10/15 11:30:08;;;;;;;;;1.25;1.25;;;;;;;;5018982;28;45369;-71
2022/10/15 11:32:43;;;;;;;;;2.75;1.00;;;;;;;;5016587;28;45461;-72
2022/10/15 11:35:17;;;;;;;;;3.75;3.00;;;;;;;;5008022;28;45475;-72
2022/10/15 11:37:42;;;;;;;;;1.25;1.00;;;;;;;;5008868;28;47766;-73
2022/10/15 11:40:10;;;;;;;;;3.00;1.00;;;;;;;;5011847;28;45467;-74
2022/10/15 11:42:36;;;;;;;;;2.25;1.00;;;;;;;;5012884;28;45443;-72
2022/10/15 11:45:19;;;;;;;;;0.50;0.50;;;;;;;;5009919;28;45409;-71
2022/10/15 11:47:47;;;;;;;;;0.50;0.50;;;;;;;;5018996;28;46506;-71
2022/10/15 11:50:31;;;;;;;;;0.00;0.00;;;;;;;;5016110;28;45272;-72
2022/10/15 11:53:05;;;;;;;;;3.00;1.75;;;;;;;;5019137;28;45349;-72
2022/10/15 11:55:45;;;;;;;;;0.00;0.00;;;;;;;;5018051;28;45569;-72
2022/10/15 11:58:14;;;;;;;;;5.75;1.75;;;;;;;;5017858;28;46730;-75
2022/10/15 12:00:47;;;;;;;;;3.50;2.50;;;;;;;;5011655;28;45464;-75
2022/10/15 12:03:22;;;;;;;;;1.00;1.00;;;;;;;;4998987;28;45395;-75
2022/10/15 12:05:48;;;;;;;;;0.00;0.00;;;;;;;;4999446;28;45395;-75
2022/10/15 12:08:13;;;;;;;;;0.00;0.00;;;;;;;;5013005;28;45486;-74
2022/10/15 12:10:52;;;;;;;;;0.00;0.00;;;;;;;;5018931;28;45367;-72
2022/10/15 12:13:38;;;;;;;;;2.25;1.00;;;;;;;;5017915;28;45361;-71
2022/10/15 12:16:09;;;;;;;;;2.00;0.00;;;;;;;;5018026;28;45422;-70
2022/10/15 12:18:38;;;;;;;;;3.25;0.00;;;;;;;;5018487;28;45460;-75
2022/10/15 12:21:23;;;;;;;;;0.75;0.00;;;;;;;;5018394;28;45250;-74
2022/10/15 12:23:49;;;;;;;;;3.00;3.00;;;;;;;;5002371;28;45326;-76
2022/10/15 12:26:23;;;;;;;;;2.00;2.00;;;;;;;;5017997;28;45522;-72
2022/10/15 12:28:50;;;;;;;;;0.00;0.00;;;;;;;;5018353;28;45534;-74
2022/10/15 12:31:19;;;;;;;;;0.00;0.00;;;;;;;;5006259;28;45330;-77
2022/10/15 12:33:46;;;;;;;;;2.00;2.00;;;;;;;;5018066;28;45492;-75
2022/10/15 12:36:17;;;;;;;;;5.00;3.00;;;;;;;;5003493;28;45516;-77
2022/10/15 12:39:04;;;;;;;;;0.00;0.00;;;;;;;;5017987;28;45655;-78
2022/10/15 12:41:38;;;;;;;;;2.50;1.00;;;;;;;;5014886;28;45321;-83
2022/10/15 12:44:06;;;;;;;;;0.50;0.00;;;;;;;;5014951;28;45646;-80
2022/10/15 12:46:36;;;;;;;;;0.00;0.00;;;;;;;;5017981;28;45396;-79
2022/10/15 12:49:21;;;;;;;;;0.00;0.00;;;;;;;;5017754;28;47077;-75
2022/10/15 12:51:46;;;;;;;;;0.00;0.00;;;;;;;;5013842;28;45499;-72
2022/10/15 12:54:30;;;;;;;;;0.00;0.00;;;;;;;;4998383;28;45484;-74
2022/10/15 12:56:55;;;;;;;;;0.00;0.00;;;;;;;;5017188;28;45394;-73
2022/10/15 12:59:27;;;;;;;;;0.00;0.00;;;;;;;;5017829;28;46411;-75
2022/10/15 13:01:52;;;;;;;;;0.25;0.00;;;;;;;;5017103;28;45399;-75
2022/10/15 13:04:18;;;;;;;;;0.75;0.00;;;;;;;;5017981;28;45285;-72
2022/10/15 13:06:44;;;;;;;;;0.00;0.00;;;;;;;;5017929;28;45242;-73
2022/10/15 13:09:29;;;;;;;;;0.00;0.00;;;;;;;;5017917;28;45369;-76
2022/10/15 13:11:55;;;;;;;;;0.00;0.00;;;;;;;;5017327;28;45426;-76
2022/10/15 13:14:29;;;;;;;;;0.00;0.00;;;;;;;;5011996;28;45470;-72
2022/10/15 13:16:55;;;;;;;;;0.25;0.00;;;;;;;;4999404;28;45339;-72
2022/10/15 13:19:29;;;;;;;;;0.00;0.00;;;;;;;;5017080;28;45543;-74
2022/10/15 13:21:59;;;;;;;;;0.00;0.00;;;;;;;;5010290;28;45203;-74
2022/10/15 13:24:25;;;;;;;;;2.00;0.00;;;;;;;;5004348;28;45267;-73
2022/10/15 13:26:52;;;;;;;;;1.00;1.00;;;;;;;;5006814;28;45338;-74
2022/10/15 13:29:22;;;;;;;;;0.00;0.00;;;;;;;;5007240;28;46972;-74
2022/10/15 13:31:47;;;;;;;;;0.00;0.00;;;;;;;;5008122;28;45437;-75
2022/10/15 13:34:18;;;;;;;;;0.00;0.00;;;;;;;;5007894;28;45536;-74
2022/10/15 13:36:44;;;;;;;;;3.25;2.00;;;;;;;;5008292;28;45346;-73
2022/10/15 13:39:21;;;;;;;;;2.00;2.00;;;;;;;;5007137;28;45691;-72
2022/10/15 13:41:46;;;;;;;;;0.00;0.00;;;;;;;;5005270;28;45456;-73
2022/10/15 13:44:21;;;;;;;;;0.00;0.00;;;;;;;;5009599;28;45421;-76
2022/10/15 13:46:47;;;;;;;;;0.25;0.00;;;;;;;;5007119;28;45455;-75
2022/10/15 13:49:12;;;;;;;;;0.75;0.00;;;;;;;;5007521;28;45380;-75
2022/10/15 13:51:43;;;;;;;;;0.00;0.00;;;;;;;;5006346;28;45488;-75
2022/10/15 13:54:10;;;;;;;;;16.67;13.00;;;;;;;;5005842;28;45405;-76
2022/10/15 13:56:35;;;;;;;;;3.75;1.00;;;;;;;;5008109;28;45325;-74
2022/10/15 13:59:02;;;;;;;;;0.00;0.00;;;;;;;;5006595;28;46617;-76
2022/10/15 14:01:28;;;;;;;;;0.00;0.00;;;;;;;;5005452;28;45226;-76
2022/10/15 14:03:54;;;;;;;;;7.33;5.33;;;;;;;;5008247;28;46664;-76
2022/10/15 14:06:26;;;;;;;;;3.75;0.50;;;;;;;;5006607;28;45290;-76
2022/10/15 14:08:53;;;;;;;;;0.00;0.00;;;;;;;;5005146;28;45411;-77
2022/10/15 14:11:18;;;;;;;;;0.00;0.00;;;;;;;;5007158;28;46648;-75
2022/10/15 14:13:44;;;;;;;;;23.00;22.33;;;;;;;;5007132;28;45413;-75
2022/10/15 14:16:18;;;;;;;;;0.00;0.00;;;;;;;;5006529;28;45491;-76
2022/10/15 14:18:45;;;;;;;;;1.75;0.00;;;;;;;;5012370;28;45533;-76
2022/10/15 14:21:12;;;;;;;;;0.00;0.00;;;;;;;;5014184;28;45456;-77
2022/10/15 14:23:38;;;;;;;;;0.50;0.00;;;;;;;;5006916;28;45476;-72
2022/10/15 14:26:03;;;;;;;;;0.00;0.00;;;;;;;;5007027;28;45175;-73
2022/10/15 14:28:30;;;;;;;;;0.00;0.00;;;;;;;;5005018;28;45397;-74
2022/10/15 14:30:56;;;;;;;;;1.00;0.00;;;;;;;;5005580;28;45394;-74
2022/10/15 14:33:36;;;;;;;;;1.00;0.00;;;;;;;;5008969;28;45199;-69
2022/10/15 14:36:03;;;;;;;;;0.00;0.00;;;;;;;;5007850;28;45869;-72
2022/10/15 14:38:28;;;;;;;;;1.00;0.00;;;;;;;;5009974;28;45436;-76
2022/10/15 14:41:01;;;;;;;;;0.00;0.00;;;;;;;;5009816;28;45334;-82
2022/10/15 14:43:33;;;;;;;;;0.00;0.00;;;;;;;;5008627;28;45441;-76